createdAt,value
2022-09-28T00:01:21.287Z,1.08
2022-09-28T00:06:25.106Z,1.38
2022-09-28T00:11:28.432Z,2.80
2022-09-28T00:16:34.042Z,3.03
2022-09-28T00:21:37.991Z,2.45
2022-09-28T00:26:43.515Z,2.70
2022-09-28T00:31:46.138Z,2.63
2022-09-28T00:36:48.955Z,2.03
2022-09-28T00:41:51.460Z,2.33
2022-09-28T00:46:56.076Z,1.83
2022-09-28T00:51:58.534Z,2.53
2022-09-28T00:57:03.130Z,2.20
2022-09-28T01:02:05.235Z,2.28
2022-09-28T01:07:09.174Z,2.38
2022-09-28T01:12:11.710Z,2.80
2022-09-28T01:17:20.587Z,2.42
2022-09-28T01:23:02.251Z,2.15
2022-09-28T01:28:14.607Z,1.83
2022-09-28T01:33:23.683Z,2.28
2022-09-28T01:38:31.481Z,2.50
2022-09-28T01:43:38.661Z,1.45
2022-09-28T01:48:50.328Z,1.60
2022-09-28T01:54:00.733Z,1.42
2022-09-28T02:04:23.813Z,1.42
2022-09-28T02:09:49.634Z,1.70
2022-09-28T02:14:57.110Z,2.25
2022-09-28T02:19:59.501Z,1.33
2022-09-28T02:25:31.643Z,1.33
2022-09-28T02:30:37.312Z,1.40
2022-09-28T02:35:42.032Z,1.98
2022-09-28T02:41:11.701Z,2.90
2022-09-28T02:46:28.580Z,1.42
2022-09-28T02:51:46.374Z,1.67
2022-09-28T02:56:50.563Z,2.25
2022-09-28T03:02:10.830Z,1.52
2022-09-28T03:07:12.844Z,1.75
2022-09-28T03:12:19.678Z,1.35
2022-09-28T03:17:22.247Z,1.80
2022-09-28T03:22:24.326Z,1.73
2022-09-28T03:27:26.394Z,1.30
2022-09-28T03:32:28.437Z,2.88
2022-09-28T03:37:30.544Z,1.70
2022-09-28T03:42:35.448Z,2.15
2022-09-28T03:47:37.672Z,2.75
2022-09-28T03:52:39.663Z,1.50
2022-09-28T03:57:41.704Z,1.65
2022-09-28T04:02:43.859Z,1.08
2022-09-28T04:07:46.070Z,2.30
2022-09-28T04:12:49.897Z,1.60
2022-09-28T04:17:52.798Z,1.45
2022-09-28T04:23:17.554Z,2.42
2022-09-28T04:28:38.274Z,2.63
2022-09-28T04:33:40.791Z,1.75
2022-09-28T04:38:52.874Z,2.25
2022-09-28T04:43:57.326Z,1.27
2022-09-28T04:54:21.410Z,4.30
2022-09-28T04:59:23.703Z,2.67
2022-09-28T05:04:26.354Z,2.58
2022-09-28T05:09:56.094Z,3.67
2022-09-28T05:14:58.095Z,4.35
2022-09-28T05:20:00.868Z,2.72
2022-09-28T05:25:03.417Z,2.95
2022-09-28T05:30:12.603Z,3.53
2022-09-28T05:35:32.047Z,1.58
2022-09-28T05:40:34.168Z,2.90
2022-09-28T05:45:36.443Z,0.95
2022-09-28T05:50:39.796Z,2.55
2022-09-28T05:55:41.803Z,3.83
2022-09-28T06:00:44.349Z,1.38
2022-09-28T06:05:47.640Z,1.73
2022-09-28T06:10:49.742Z,1.60
2022-09-28T06:15:52.280Z,1.67
2022-09-28T06:20:54.303Z,1.33
2022-09-28T06:26:06.070Z,1.42
2022-09-28T06:31:08.395Z,3.00
2022-09-28T06:36:18.883Z,2.13
2022-09-28T06:41:21.219Z,1.45
2022-09-28T06:46:23.556Z,2.78
2022-09-28T06:51:46.256Z,2.75
2022-09-28T06:56:57.231Z,0.98
2022-09-28T07:01:59.911Z,1.63
2022-09-28T07:07:37.206Z,2.47
2022-09-28T07:12:55.254Z,3.50
2022-09-28T07:18:08.257Z,3.47
2022-09-28T07:23:18.638Z,3.03
2022-09-28T07:28:43.205Z,4.43
2022-09-28T07:34:03.992Z,5.93
2022-09-28T07:39:26.033Z,5.13
2022-09-28T07:44:29.851Z,6.53
2022-09-28T07:49:32.987Z,5.80
2022-09-28T07:54:55.698Z,8.05
2022-09-28T08:00:12.141Z,11.25
2022-09-28T08:05:18.968Z,9.38
2022-09-28T08:10:21.105Z,5.78
2022-09-28T08:15:55.655Z,9.43
2022-09-28T08:21:26.550Z,8.10
2022-09-28T08:26:29.855Z,7.20
2022-09-28T08:31:33.057Z,8.48
2022-09-28T08:36:49.036Z,7.88
2022-09-28T08:42:42.938Z,9.10
2022-09-28T08:48:20.974Z,6.22
2022-09-28T08:54:11.753Z,10.95
2022-09-28T08:59:56.599Z,8.48
2022-09-28T09:05:13.570Z,9.70
2022-09-28T09:10:57.980Z,7.28
2022-09-28T09:16:36.687Z,8.20
2022-09-28T09:22:17.712Z,7.18
2022-09-28T09:28:02.243Z,9.30
2022-09-28T09:33:13.669Z,8.13
2022-09-28T09:38:47.524Z,7.63
2022-09-28T09:44:30.665Z,7.78
2022-09-28T09:50:06.868Z,7.22
2022-09-28T09:55:11.004Z,9.38
2022-09-28T10:00:19.401Z,6.85
2022-09-28T10:05:36.083Z,9.30
2022-09-28T10:15:48.223Z,8.55
2022-09-28T10:21:05.005Z,6.85
2022-09-28T10:26:38.162Z,8.32
2022-09-28T10:31:50.382Z,12.45
2022-09-28T10:37:04.526Z,6.93
2022-09-28T10:42:38.976Z,6.78
2022-09-28T10:47:44.579Z,6.18
2022-09-28T10:52:49.035Z,7.10
2022-09-28T10:58:29.098Z,11.20
2022-09-28T11:03:32.083Z,3.25
2022-09-28T11:08:44.531Z,8.50
2022-09-28T11:13:54.674Z,5.82
2022-09-28T11:19:26.351Z,6.80
2022-09-28T11:24:29.688Z,6.28
2022-09-28T11:29:47.050Z,5.95
2022-09-28T11:35:19.921Z,5.05
2022-09-28T11:40:41.066Z,6.18
2022-09-28T11:46:09.284Z,8.70
2022-09-28T11:51:32.304Z,5.38
2022-09-28T11:56:40.152Z,5.95
2022-09-28T12:01:49.090Z,6.40
2022-09-28T12:07:14.225Z,5.47
2022-09-28T12:12:33.808Z,9.45
2022-09-28T12:17:46.892Z,6.82
2022-09-28T12:23:02.903Z,3.55
2022-09-28T12:28:13.453Z,5.45
2022-09-28T12:33:15.764Z,3.45
2022-09-28T12:38:29.668Z,5.53
2022-09-28T12:43:54.745Z,6.20
2022-09-28T12:54:36.907Z,3.47
2022-09-28T12:59:47.348Z,5.32
2022-09-28T13:05:26.729Z,5.25
2022-09-28T13:10:55.108Z,4.05
2022-09-28T13:16:12.849Z,6.13
2022-09-28T13:21:28.523Z,5.57
2022-09-28T13:26:38.182Z,6.38
2022-09-28T13:31:53.029Z,5.78
2022-09-28T13:37:24.292Z,5.68
2022-09-28T13:42:44.480Z,4.80
2022-09-28T13:47:58.421Z,4.35
2022-09-28T13:53:08.167Z,5.20
2022-09-28T13:58:38.589Z,5.45
2022-09-28T14:03:49.668Z,6.07
2022-09-28T14:09:13.435Z,4.13
2022-09-28T14:14:16.199Z,3.83
2022-09-28T14:19:24.488Z,7.80
2022-09-28T14:24:45.359Z,5.55
2022-09-28T14:29:53.975Z,6.93
2022-09-28T14:35:03.991Z,4.80
2022-09-28T14:40:35.580Z,4.78
2022-09-28T14:45:38.515Z,6.10
2022-09-28T14:50:40.797Z,2.55
2022-09-28T14:55:51.441Z,4.65
2022-09-28T15:01:02.881Z,4.57
2022-09-28T15:06:05.100Z,2.95
2022-09-28T15:11:14.674Z,3.88
2022-09-28T15:16:17.978Z,4.47
2022-09-28T15:26:31.071Z,4.05
2022-09-28T15:31:36.013Z,3.15
2022-09-28T15:36:43.309Z,2.72
2022-09-28T15:41:47.969Z,5.70
2022-09-28T15:46:52.232Z,5.28
2022-09-28T15:51:58.228Z,3.95
2022-09-28T15:57:02.822Z,2.58
2022-09-28T16:02:22.826Z,3.15
2022-09-28T16:07:41.935Z,3.63
2022-09-28T16:12:48.857Z,3.80
2022-09-28T16:17:52.473Z,2.80
2022-09-28T16:22:57.042Z,3.42
2022-09-28T16:27:59.197Z,2.88
2022-09-28T16:33:05.812Z,2.05
2022-09-28T16:38:14.534Z,2.88
2022-09-28T16:43:31.322Z,2.83
2022-09-28T16:48:37.583Z,3.78
2022-09-28T16:53:58.216Z,5.40
2022-09-28T16:59:01.298Z,2.90
2022-09-28T17:04:03.555Z,2.13
2022-09-28T17:09:07.304Z,5.78
2022-09-28T17:14:09.641Z,5.57
2022-09-28T17:19:24.022Z,4.18
2022-09-28T17:24:26.318Z,3.15
2022-09-28T17:29:28.352Z,3.33
2022-09-28T17:34:30.410Z,3.25
2022-09-28T17:39:32.374Z,3.63
2022-09-28T17:44:34.596Z,1.70
2022-09-28T17:49:38.978Z,2.83
2022-09-28T17:54:40.968Z,1.98
2022-09-28T17:59:42.924Z,3.33
2022-09-28T18:10:24.547Z,3.13
2022-09-28T18:15:26.847Z,1.83
2022-09-28T18:20:29.875Z,2.03
2022-09-28T18:25:32.231Z,1.92
2022-09-28T18:30:34.290Z,3.38
2022-09-28T18:35:36.937Z,1.50
2022-09-28T18:40:39.065Z,2.60
2022-09-28T18:45:41.403Z,1.88
2022-09-28T18:50:43.562Z,2.78
2022-09-28T18:55:45.673Z,2.78
2022-09-28T19:00:47.840Z,0.90
2022-09-28T19:05:49.823Z,2.35
2022-09-28T19:10:51.806Z,2.92
2022-09-28T19:15:53.791Z,1.48
2022-09-28T19:20:55.770Z,1.58
2022-09-28T19:25:58.024Z,0.93
2022-09-28T19:41:40.775Z,2.08
2022-09-28T19:46:44.306Z,2.67
2022-09-28T19:57:15.946Z,2.30
2022-09-28T20:02:18.292Z,1.75
2022-09-28T20:07:20.817Z,3.08
2022-09-28T20:12:23.334Z,2.05
2022-09-28T20:17:25.304Z,2.47
2022-09-28T20:22:27.263Z,3.20
2022-09-28T20:27:29.309Z,1.35
2022-09-28T20:32:32.507Z,2.17
2022-09-28T20:37:34.808Z,1.67
2022-09-28T20:42:38.183Z,1.73
2022-09-28T20:52:42.745Z,1.60
2022-09-28T20:57:45.521Z,1.48
2022-09-28T21:02:51.664Z,1.33
2022-09-28T21:07:53.645Z,1.25
2022-09-28T21:12:55.582Z,3.58
2022-09-28T21:17:57.781Z,0.90
2022-09-28T21:22:59.772Z,2.05
2022-09-28T21:28:01.853Z,1.08
2022-09-28T21:33:03.796Z,1.05
2022-09-28T21:38:06.079Z,2.08
2022-09-28T21:43:08.210Z,0.85
2022-09-28T21:48:10.142Z,1.10
2022-09-28T21:53:12.079Z,1.10
2022-09-28T21:58:14.040Z,1.75
2022-09-28T22:03:17.312Z,1.02
2022-09-28T22:08:20.350Z,0.85
2022-09-28T22:13:22.562Z,0.70
2022-09-28T22:18:27.129Z,0.70
2022-09-28T22:23:30.163Z,1.65
2022-09-28T22:28:32.439Z,1.58
2022-09-28T22:33:34.793Z,1.50
2022-09-28T22:38:37.530Z,1.33
2022-09-28T22:43:39.659Z,1.92
2022-09-28T22:48:44.651Z,0.73
2022-09-28T22:53:47.223Z,0.98
2022-09-28T22:58:49.233Z,0.85
2022-09-28T23:03:53.014Z,0.57
2022-09-28T23:08:55.393Z,0.60
2022-09-28T23:13:59.076Z,1.52
2022-09-28T23:19:01.198Z,1.10
2022-09-28T23:24:03.624Z,1.17
2022-09-28T23:29:06.216Z,0.73
2022-09-28T23:34:10.508Z,0.55
2022-09-28T23:39:12.476Z,2.08
2022-09-28T23:44:14.523Z,1.00
2022-09-28T23:49:16.600Z,1.55
2022-09-28T23:54:18.839Z,0.93
2022-09-28T23:59:20.837Z,1.02
